NCAR-RAP Real-Time Weather Data

Output produced by METARs form (12 August 2020  18:40 UTC)
found at http://weather.rap.ucar.edu/surface/
 
KCLE 121751Z 01011KT 10SM BKN250 27/14 A3013 RMK AO2 SLP197 T02670144 10278 20200 56003
KCLE 121651Z 01009KT 10SM BKN250 27/14 A3013 RMK AO2 SLP197 T02670144
KCLE 121551Z 03008KT 10SM BKN250 27/14 A3014 RMK AO2 SLP199 T02720144
KCLE 121451Z 07008KT 10SM FEW048 BKN250 27/13 A3014 RMK AO2 SLP200 T02670133 50002 $
KCLE 121351Z 07008KT 10SM FEW048 BKN250 25/14 A3014 RMK AO2 SLP201 T02500139 $
KCLE 121251Z 05004KT 10SM FEW047 BKN250 24/17 A3014 RMK AO2 SLP201 T02390172 $
KCLE 121151Z 00000KT 10SM FEW034 SCT250 20/17 A3013 RMK AO2 SLP199 T02000172 10233 20172 53018 $
KCLE 121051Z 00000KT 10SM FEW035 FEW190 SCT250 18/16 A3011 RMK AO2 SLP190 T01780156 $
KCLE 120951Z 00000KT 10SM FEW035 BKN250 19/16 A3009 RMK AO2 SLP182 T01890156 $
KCLE 120851Z 04003KT 10SM SCT035 BKN250 21/16 A3008 RMK AO2 SLP180 T02060156 53008 $
KCLE 120751Z 06005KT 10SM FEW025 BKN033 BKN250 23/15 A3007 RMK AO2 SLP174 T02280150 $
KCLE 120651Z 04005KT 10SM FEW025 FEW040 BKN250 22/14 A3006 RMK AO2 SLP173 T02220144 $
KCLE 120551Z 05005KT 10SM FEW025 FEW039 SCT130 BKN250 23/16 A3005 RMK AO2 SLP170 T02330156 10261 20211 53012 $
KCLE 120451Z 04009KT 10SM FEW023 SCT035 BKN250 24/18 A3004 RMK AO2 SLP166 T02390178 402940211 $
KCLE 120351Z 25003KT 10SM FEW033 SCT041 BKN250 22/19 A3003 RMK AO2 SLP162 T02220189 $
KCLE 120251Z 25005KT 10SM FEW040 BKN250 23/19 A3002 RMK AO2 SLP159 T02330189 51015 $
KCLE 120151Z 22004KT 10SM FEW040 BKN250 24/19 A3001 RMK AO2 SLP157 T02390194 $
KCLE 120051Z 26005KT 10SM SCT037 SCT050 BKN250 25/19 A2999 RMK AO2 SLP149 T02500194 $
KCLE 112351Z 23006KT 10SM SCT042 SCT050 BKN250 27/19 A2997 RMK AO2 SLP143 T02670194 10294 20267 55001 $
KCLE 112251Z 24007KT 10SM SCT035 BKN250 27/19 A2997 RMK AO2 SLP141 T02720194 $
KCLE 112151Z 24006KT 10SM SCT035 SCT250 29/20 A2997 RMK AO2 SLP142 T02890200 $
KCLE 112051Z VRB04KT 10SM FEW034 FEW044 SCT055 SCT250 28/20 A2998 RMK AO2 SLP144 T02830200 58001 $
KCLE 111951Z 31008KT 260V350 10SM SCT036 BKN055 28/19 A2997 RMK AO2 SLP143 T02830194 $
KCLE 111851Z 29009KT 10SM BKN035 BKN045 28/19 A2998 RMK AO2 SLP146 T02780189 $
KCLE 111751Z 25009KT 10SM BKN036 BKN150 BKN250 27/19 A2998 RMK AO2 SLP145 T02720194 10278 20222 50001 $
KCLE 111721Z VRB05KT 10SM BKN033 BKN150 BKN250 27/20 A2998 RMK AO2 T02720200 $
KCLE 111651Z 26006KT 10SM BKN029 BKN150 BKN250 27/19 A2998 RMK AO2 SLP145 T02670194 $
KCLE 111551Z 25006KT 10SM BKN026 BKN150 BKN250 26/20 A2998 RMK AO2 SLP146 T02560200 $
KCLE 111451Z 24007KT 10SM BKN023 BKN150 BKN250 25/19 A2998 RMK AO2 SLP143 T02500194 51008 $
KCLE 111351Z 25008KT 10SM OVC018 23/19 A2997 RMK AO2 SLP142 T02330194 $
KCLE 111251Z 25010KT 10SM BKN018 BKN250 23/18 A2996 RMK AO2 SLP138 T02280183 $
KCLE 111151Z 26009KT 10SM BKN020 BKN160 BKN250 22/18 A2995 RMK AO2 SLP135 T02220183 10256 20217 53011 $
KCLE 111105Z 24008KT 10SM BKN023 BKN110 BKN160 BKN250 22/17 A2994 RMK AO2 T02220172 $
KCLE 111051Z 23008KT 10SM FEW020 SCT110 BKN150 BKN250 22/17 A2994 RMK AO2 SLP130 T02220172 $
KCLE 110951Z 22007KT 10SM BKN110 BKN250 23/17 A2992 RMK AO2 SLP123 T02280172 $
KCLE 110851Z 24008KT 10SM FEW110 SCT130 BKN250 23/18 A2992 RMK AO2 SLP122 T02280178 53014 $
KCLE 110751Z 24008KT 10SM BKN110 BKN250 24/19 A2990 RMK AO2 SLP115 T02390189 $
KCLE 110651Z 20009KT 10SM SCT120 SCT250 25/19 A2987 RMK AO2 SLP106 T02500194 $
KCLE 110551Z 19008KT 10SM FEW180 BKN250 26/20 A2988 RMK AO2 SLP108 T02560200 10294 20256 57018 $
KCLE 110451Z 18008KT 10SM FEW180 BKN250 26/19 A2989 RMK AO2 SLP114 T02610189 403220211 $
KCLE 110351Z 20010KT 10SM OVC250 27/18 A2991 RMK AO2 SLP121 T02670183 $
KCLE 110251Z 19007KT 10SM BKN250 27/18 A2993 RMK AO2 SLP127 T02670183 50005 $
KCLE 110151Z 19005KT 10SM BKN250 27/18 A2995 RMK AO2 SLP133 T02670183 $
KCLE 110051Z 19005KT 10SM BKN250 28/18 A2994 RMK AO2 SLP130 T02780183 $
KCLE 102351Z 19007KT 10SM SCT250 29/18 A2991 RMK AO2 SLP122 T02940178 10322 20294 56013 $
KCLE 102251Z 19009KT 10SM SCT250 31/18 A2992 RMK AO2 SLP124 T03060178 $
KCLE 102151Z 19010KT 10SM FEW060 BKN250 31/17 A2992 RMK AO2 SLP124 T03110172 $
KCLE 102051Z 21008KT 10SM FEW060 SCT250 32/18 A2995 RMK AO2 SLP135 T03220178 58030 $
KCLE 101951Z 22005KT 10SM FEW060 SCT250 32/18 A2999 RMK AO2 SLP148 T03170183 $
KCLE 101851Z 23010KT 10SM FEW055 SCT250 32/19 A3002 RMK AO2 SLP157 T03170189 $